Time;durP1;ratioP1;P1;durP2;ratioP2;P2;SDS_P1;SDS_P2;PMS_P1;PMS_P2;Temp;Humidity;BMP_temperature;BMP_pressure;BME280_temperature;BME280_humidity;BME280_pressure;Samples;Min_cycle;Max_cycle;Signal;HPM_P1;HPM_P2
2023/08/31 00:00:51;;;;;;;5.63;3.22;;;14.50;99.90;;;;;;6250593;28;20133;-80
2023/08/31 00:03:54;;;;;;;8.15;4.90;;;14.50;99.90;;;;;;6249190;28;20061;-80
2023/08/31 00:06:56;;;;;;;9.35;4.63;;;14.40;99.90;;;;;;6249803;28;20473;-80
2023/08/31 00:09:58;;;;;;;10.68;3.75;;;14.40;99.90;;;;;;6249150;28;20053;-80
2023/08/31 00:13:00;;;;;;;9.98;4.45;;;14.40;99.90;;;;;;6251281;28;20152;-80
2023/08/31 00:16:02;;;;;;;8.00;4.85;;;14.40;99.90;;;;;;6251305;28;20054;-80
2023/08/31 00:19:05;;;;;;;6.13;4.70;;;14.50;99.90;;;;;;6251044;28;20056;-81
2023/08/31 00:22:06;;;;;;;6.57;5.10;;;14.50;99.90;;;;;;6246216;28;20049;-80
2023/08/31 00:25:09;;;;;;;5.03;3.85;;;14.50;99.90;;;;;;6249810;28;20508;-80
2023/08/31 00:28:10;;;;;;;5.60;4.88;;;14.50;99.90;;;;;;6254104;28;20050;-80
2023/08/31 00:31:12;;;;;;;3.90;3.50;;;14.50;99.90;;;;;;6254411;28;20053;-81
2023/08/31 00:34:17;;;;;;;5.25;4.43;;;14.50;99.90;;;;;;6253635;28;20531;-80
2023/08/31 00:37:21;;;;;;;6.03;4.25;;;14.50;99.90;;;;;;6253910;28;20060;-80
2023/08/31 00:40:22;;;;;;;6.40;4.55;;;14.40;99.90;;;;;;6253416;28;20045;-80
2023/08/31 00:43:24;;;;;;;6.72;4.82;;;14.30;99.90;;;;;;6253889;28;20053;-80
2023/08/31 00:46:27;;;;;;;4.82;4.32;;;14.30;99.90;;;;;;6253434;28;20050;-80
2023/08/31 00:49:30;;;;;;;9.73;5.18;;;14.20;99.90;;;;;;6252896;28;20045;-80
2023/08/31 00:52:32;;;;;;;8.02;4.63;;;14.20;99.90;;;;;;6255098;28;20634;-80
2023/08/31 00:55:34;;;;;;;5.65;4.07;;;14.20;99.90;;;;;;6256880;28;20415;-79
2023/08/31 00:58:36;;;;;;;5.00;3.83;;;14.10;99.90;;;;;;6256649;28;20061;-79
2023/08/31 01:01:43;;;;;;;8.27;4.88;;;14.10;99.90;;;;;;6256740;28;20045;-80
2023/08/31 01:04:52;;;;;;;6.73;4.73;;;14.00;99.90;;;;;;6255636;28;20042;-79
2023/08/31 01:08:03;;;;;;;6.45;4.40;;;14.00;99.90;;;;;;6257240;28;20813;-79
2023/08/31 01:11:15;;;;;;;5.05;4.05;;;13.90;99.90;;;;;;6257180;28;20503;-80
2023/08/31 01:14:18;;;;;;;5.25;3.85;;;13.90;99.90;;;;;;6256192;28;20045;-80
2023/08/31 01:17:21;;;;;;;7.07;5.63;;;13.90;99.90;;;;;;6255146;28;20042;-80
2023/08/31 01:20:31;;;;;;;5.45;4.90;;;13.80;99.90;;;;;;6253829;28;20045;-80
2023/08/31 01:23:53;;;;;;;5.78;4.78;;;13.80;99.90;;;;;;6255777;28;20050;-80
2023/08/31 01:26:55;;;;;;;5.85;4.82;;;13.90;99.90;;;;;;6253611;28;20077;-80
2023/08/31 01:29:56;;;;;;;10.90;4.88;;;13.90;99.90;;;;;;6253175;28;20045;-81
2023/08/31 01:32:58;;;;;;;5.80;4.28;;;13.90;99.90;;;;;;6253347;28;20046;-80
2023/08/31 01:36:02;;;;;;;7.45;5.28;;;14.00;99.90;;;;;;6253603;28;20056;-80
2023/08/31 01:39:11;;;;;;;6.45;5.72;;;14.00;99.90;;;;;;6253240;28;20060;-80
2023/08/31 01:42:16;;;;;;;9.23;5.45;;;14.00;99.90;;;;;;6253388;28;20707;-80
2023/08/31 01:45:22;;;;;;;6.22;5.00;;;14.00;99.90;;;;;;6252902;28;20049;-80
2023/08/31 01:48:23;;;;;;;8.25;5.88;;;14.00;99.90;;;;;;6253152;28;20060;-81
2023/08/31 01:51:26;;;;;;;11.23;5.10;;;14.00;99.90;;;;;;6253904;28;20496;-81
2023/08/31 01:54:29;;;;;;;6.15;5.13;;;14.00;99.90;;;;;;6253143;28;20042;-80
2023/08/31 01:57:31;;;;;;;10.90;5.78;;;14.00;99.90;;;;;;6253225;28;20076;-79
2023/08/31 02:00:34;;;;;;;7.82;5.18;;;14.00;99.90;;;;;;6256721;28;20047;-80
2023/08/31 02:03:36;;;;;;;7.90;5.65;;;14.10;99.90;;;;;;6257863;28;20084;-79
2023/08/31 02:06:38;;;;;;;5.75;4.80;;;14.00;99.90;;;;;;6256091;28;20057;-79
2023/08/31 02:09:41;;;;;;;8.48;4.63;;;14.00;99.90;;;;;;6255849;28;20155;-80
2023/08/31 02:12:42;;;;;;;10.10;6.10;;;14.00;99.90;;;;;;6254580;28;20041;-80
2023/08/31 02:15:44;;;;;;;12.80;5.80;;;14.00;99.90;;;;;;6256413;28;20049;-80
2023/08/31 02:18:46;;;;;;;11.30;5.72;;;14.00;99.90;;;;;;6255384;28;20037;-80
2023/08/31 02:21:48;;;;;;;7.90;6.63;;;14.00;99.90;;;;;;6256931;28;20136;-80
2023/08/31 02:24:52;;;;;;;7.80;5.75;;;13.90;99.90;;;;;;6252286;28;20459;-81
2023/08/31 02:27:53;;;;;;;8.57;5.55;;;14.00;99.90;;;;;;6253251;28;20056;-81
2023/08/31 02:31:03;;;;;;;9.07;6.40;;;14.00;99.90;;;;;;6252083;28;20046;-79
2023/08/31 02:34:05;;;;;;;10.73;5.85;;;14.00;99.90;;;;;;6254433;28;20068;-79
2023/08/31 02:37:07;;;;;;;13.75;7.38;;;14.00;99.90;;;;;;6254999;28;20137;-79
2023/08/31 02:40:11;;;;;;;12.70;6.70;;;14.00;99.90;;;;;;6255546;28;20477;-79
2023/08/31 02:43:13;;;;;;;11.02;6.47;;;13.90;99.90;;;;;;6255811;28;20511;-80
2023/08/31 02:46:15;;;;;;;11.80;6.45;;;13.90;99.90;;;;;;6255704;28;20051;-80
2023/08/31 02:49:16;;;;;;;13.80;9.68;;;14.00;99.90;;;;;;6254187;28;20504;-80
2023/08/31 02:52:18;;;;;;;10.20;5.80;;;14.00;99.90;;;;;;6254381;28;20068;-81
2023/08/31 02:55:21;;;;;;;8.25;5.45;;;14.00;99.90;;;;;;6252393;28;20054;-81
2023/08/31 02:58:23;;;;;;;8.02;5.25;;;14.10;99.90;;;;;;6251487;28;20500;-81
2023/08/31 03:01:25;;;;;;;6.78;6.05;;;14.10;99.90;;;;;;6250337;28;20468;-80
2023/08/31 03:04:26;;;;;;;10.48;5.55;;;14.00;99.90;;;;;;6252362;28;20068;-81
2023/08/31 03:07:28;;;;;;;7.25;5.88;;;14.00;99.90;;;;;;6251647;28;20042;-82
2023/08/31 03:10:31;;;;;;;8.13;5.43;;;14.00;99.90;;;;;;6252567;28;20045;-81
2023/08/31 03:13:33;;;;;;;8.57;6.47;;;14.00;99.90;;;;;;6252171;28;20049;-81
2023/08/31 03:16:35;;;;;;;9.55;8.02;;;14.00;99.90;;;;;;6252515;28;20045;-81
2023/08/31 03:19:36;;;;;;;6.93;6.22;;;13.90;99.90;;;;;;6252906;28;20041;-81
2023/08/31 03:22:38;;;;;;;8.55;5.35;;;14.00;99.90;;;;;;6251110;28;20052;-81
2023/08/31 03:25:41;;;;;;;10.68;6.05;;;14.00;99.90;;;;;;6253069;28;20049;-81
2023/08/31 03:28:43;;;;;;;7.97;4.45;;;14.00;99.90;;;;;;6252606;28;20089;-81
2023/08/31 03:31:45;;;;;;;7.20;6.43;;;14.00;99.90;;;;;;6253623;28;20045;-81
2023/08/31 03:34:46;;;;;;;7.68;5.88;;;14.00;99.90;;;;;;6253599;28;20049;-81
2023/08/31 03:37:48;;;;;;;10.15;5.30;;;14.00;99.90;;;;;;6253618;28;20468;-81
2023/08/31 03:40:58;;;;;;;6.22;5.38;;;14.00;99.90;;;;;;6252088;28;20056;-81
2023/08/31 03:44:00;;;;;;;6.55;5.43;;;14.00;99.90;;;;;;6251983;28;20084;-80
2023/08/31 03:47:02;;;;;;;9.82;5.95;;;14.00;99.90;;;;;;6253902;28;20053;-81
2023/08/31 03:50:04;;;;;;;8.00;5.75;;;14.00;99.90;;;;;;6254374;28;20505;-81
2023/08/31 03:53:06;;;;;;;6.07;5.53;;;14.00;99.90;;;;;;6255108;28;20053;-81
2023/08/31 03:56:09;;;;;;;5.78;5.28;;;14.10;99.90;;;;;;6253711;28;20054;-81
2023/08/31 03:59:11;;;;;;;8.02;5.05;;;14.10;99.90;;;;;;6254054;28;20041;-82
2023/08/31 04:02:13;;;;;;;19.33;11.05;;;14.10;99.90;;;;;;6256768;28;20049;-82
2023/08/31 04:05:16;;;;;;;9.07;6.78;;;14.10;99.90;;;;;;6258956;28;20420;-81
2023/08/31 04:08:17;;;;;;;6.70;5.10;;;14.10;99.90;;;;;;6259360;28;20069;-80
2023/08/31 04:11:20;;;;;;;6.30;4.65;;;14.00;99.90;;;;;;6263783;28;20060;-79
2023/08/31 04:14:22;;;;;;;5.93;4.88;;;14.10;99.90;;;;;;6264469;28;20050;-81
2023/08/31 04:17:24;;;;;;;8.60;6.10;;;14.00;99.90;;;;;;6261264;28;20128;-81
2023/08/31 04:20:25;;;;;;;9.00;4.85;;;14.00;99.90;;;;;;6262903;28;20042;-80
2023/08/31 04:23:27;;;;;;;6.40;5.50;;;14.00;99.90;;;;;;6262482;28;20050;-81
2023/08/31 04:26:30;;;;;;;9.20;6.25;;;14.10;99.90;;;;;;6263454;28;20049;-80
2023/08/31 04:29:32;;;;;;;8.95;5.68;;;14.10;99.90;;;;;;6262326;28;20064;-81
2023/08/31 04:32:35;;;;;;;11.63;5.50;;;14.10;99.90;;;;;;6266832;28;20138;-80
2023/08/31 04:35:36;;;;;;;11.02;5.28;;;14.10;99.90;;;;;;6268227;28;20057;-80
2023/08/31 04:38:38;;;;;;;7.72;5.07;;;14.20;99.90;;;;;;6263170;28;20052;-80
2023/08/31 04:41:41;;;;;;;8.75;5.68;;;14.10;99.90;;;;;;6262139;28;20063;-80
2023/08/31 04:44:43;;;;;;;8.30;5.90;;;14.10;99.90;;;;;;6261590;28;20045;-81
2023/08/31 04:47:45;;;;;;;6.10;5.20;;;14.10;99.90;;;;;;6262543;28;20041;-80
2023/08/31 04:50:47;;;;;;;8.98;5.85;;;14.10;99.90;;;;;;6262548;28;20052;-79
2023/08/31 04:53:48;;;;;;;5.43;4.95;;;14.10;99.90;;;;;;6266296;28;20076;-80
2023/08/31 04:56:52;;;;;;;21.15;7.53;;;14.10;99.90;;;;;;6266514;28;20431;-79
2023/08/31 04:59:53;;;;;;;6.18;5.57;;;14.10;99.90;;;;;;6267479;28;20045;-79
2023/08/31 05:02:55;;;;;;;6.80;5.78;;;14.10;99.90;;;;;;6260324;28;20049;-80
2023/08/31 05:05:57;;;;;;;7.50;5.53;;;14.20;99.90;;;;;;6260393;28;20043;-79
2023/08/31 05:08:58;;;;;;;7.18;5.65;;;14.20;99.90;;;;;;6261164;28;20052;-79
2023/08/31 05:12:02;;;;;;;15.10;6.53;;;14.20;99.90;;;;;;6260697;28;20058;-79
2023/08/31 05:15:04;;;;;;;11.00;5.72;;;14.30;99.90;;;;;;6260944;28;20050;-80
2023/08/31 05:18:08;;;;;;;7.03;5.10;;;14.30;99.90;;;;;;6260361;28;20052;-80
2023/08/31 05:21:10;;;;;;;6.38;4.78;;;14.40;99.90;;;;;;6260816;28;20052;-80
2023/08/31 05:24:11;;;;;;;6.00;4.82;;;14.40;99.90;;;;;;6260568;28;20053;-79
2023/08/31 05:27:15;;;;;;;7.38;4.85;;;14.40;99.90;;;;;;6261228;28;20076;-79
2023/08/31 05:30:16;;;;;;;6.47;4.93;;;14.50;99.90;;;;;;6262136;28;20053;-80
2023/08/31 05:33:19;;;;;;;5.93;5.10;;;14.50;99.90;;;;;;6259051;28;20117;-79
2023/08/31 05:36:20;;;;;;;6.60;5.22;;;14.60;99.90;;;;;;6260854;28;20053;-80
2023/08/31 05:39:22;;;;;;;5.57;4.40;;;14.60;99.90;;;;;;6258666;28;20056;-81
2023/08/31 05:42:26;;;;;;;8.32;5.32;;;14.70;99.90;;;;;;6263386;28;20063;-80
2023/08/31 05:45:28;;;;;;;6.85;4.55;;;14.80;99.90;;;;;;6262978;28;20049;-80
2023/08/31 05:48:30;;;;;;;6.78;6.05;;;14.80;99.90;;;;;;6260247;28;20492;-80
2023/08/31 05:51:31;;;;;;;4.00;3.72;;;14.90;99.90;;;;;;6257806;28;20087;-80
2023/08/31 05:54:33;;;;;;;8.50;4.93;;;15.00;99.90;;;;;;6258374;28;20052;-81
2023/08/31 05:57:37;;;;;;;6.35;5.28;;;15.10;99.90;;;;;;6259084;28;20056;-80
2023/08/31 06:00:39;;;;;;;7.93;5.15;;;15.10;99.90;;;;;;6264549;28;20133;-80
2023/08/31 06:03:40;;;;;;;5.90;4.38;;;15.30;99.90;;;;;;6256558;28;20472;-81
2023/08/31 06:06:42;;;;;;;10.07;5.13;;;15.40;99.90;;;;;;6229480;28;20432;-80
2023/08/31 06:09:44;;;;;;;9.77;5.25;;;15.60;99.90;;;;;;6252342;28;20264;-81
2023/08/31 06:12:47;;;;;;;6.03;4.22;;;15.80;99.90;;;;;;6246021;28;20397;-80
2023/08/31 06:15:49;;;;;;;6.38;4.60;;;16.30;99.90;;;;;;6254502;28;20076;-81
2023/08/31 06:18:51;;;;;;;5.45;3.83;;;16.70;99.90;;;;;;6253961;28;20048;-81
2023/08/31 06:21:53;;;;;;;7.45;3.55;;;17.10;99.90;;;;;;6253811;28;20420;-80
2023/08/31 06:24:54;;;;;;;5.70;3.60;;;17.40;99.90;;;;;;6252376;28;20647;-80
2023/08/31 06:27:58;;;;;;;7.13;3.22;;;17.50;99.90;;;;;;6243203;28;20048;-80
2023/08/31 06:31:00;;;;;;;5.70;4.40;;;17.50;99.90;;;;;;6227734;28;20060;-80
2023/08/31 06:34:02;;;;;;;5.57;2.97;;;17.50;99.90;;;;;;6228359;28;20053;-81
2023/08/31 06:37:04;;;;;;;8.35;3.70;;;17.50;99.90;;;;;;6250334;28;20056;-81
2023/08/31 06:40:08;;;;;;;5.72;2.90;;;17.80;99.90;;;;;;6253450;28;20046;-81
2023/08/31 06:43:11;;;;;;;4.95;3.47;;;18.00;99.90;;;;;;6254105;28;20115;-81
2023/08/31 06:46:12;;;;;;;4.78;2.95;;;17.80;99.90;;;;;;6252194;28;20052;-81
2023/08/31 06:49:14;;;;;;;4.00;2.92;;;17.70;99.90;;;;;;6252797;28;20100;-81
2023/08/31 06:52:17;;;;;;;4.97;3.42;;;17.50;99.90;;;;;;6252305;28;20651;-81
2023/08/31 06:55:19;;;;;;;4.45;3.60;;;17.40;99.90;;;;;;6253687;28;20408;-81
2023/08/31 06:58:22;;;;;;;7.80;2.80;;;17.50;99.90;;;;;;6248435;28;20052;-81
2023/08/31 07:01:23;;;;;;;3.92;3.63;;;17.60;99.90;;;;;;6251498;28;20052;-80
2023/08/31 07:04:27;;;;;;;3.78;3.28;;;17.60;99.90;;;;;;6250121;28;20052;-81
2023/08/31 07:07:28;;;;;;;4.22;3.40;;;17.80;99.90;;;;;;6250747;28;20056;-83
2023/08/31 07:10:31;;;;;;;4.13;2.75;;;18.00;99.90;;;;;;6249687;28;20554;-81
2023/08/31 07:13:34;;;;;;;6.00;2.72;;;18.20;99.90;;;;;;6250891;28;20038;-80
2023/08/31 07:16:36;;;;;;;7.07;3.80;;;18.50;99.90;;;;;;6250500;28;20082;-81
2023/08/31 07:19:37;;;;;;;3.63;2.70;;;18.60;99.90;;;;;;6250945;28;20052;-83
2023/08/31 07:22:40;;;;;;;6.28;3.25;;;18.70;99.90;;;;;;6250290;28;20080;-81
2023/08/31 07:25:42;;;;;;;3.05;2.58;;;18.80;99.90;;;;;;6249356;28;20050;-84
2023/08/31 07:28:45;;;;;;;4.18;2.55;;;18.90;99.90;;;;;;6247978;28;20517;-81
2023/08/31 07:31:48;;;;;;;3.60;2.10;;;19.10;99.90;;;;;;6254337;28;20504;-82
2023/08/31 07:34:50;;;;;;;3.05;2.75;;;19.00;99.90;;;;;;6259191;28;20049;-82
2023/08/31 07:37:53;;;;;;;4.57;2.05;;;19.30;99.90;;;;;;6257816;28;20132;-83
2023/08/31 07:40:55;;;;;;;6.57;2.67;;;19.50;99.90;;;;;;6259274;28;20047;-82
2023/08/31 07:43:58;;;;;;;3.88;1.98;;;19.90;99.90;;;;;;6255044;28;20049;-82
2023/08/31 07:47:00;;;;;;;3.67;2.25;;;20.30;99.90;;;;;;6252833;28;20515;-82
2023/08/31 07:50:02;;;;;;;4.13;2.00;;;20.90;99.90;;;;;;6255407;28;20051;-82
2023/08/31 07:56:20;;;;;;;3.75;1.67;;;22.10;99.90;;;;;;6257945;28;20068;-83
2023/08/31 07:59:23;;;;;;;4.30;2.83;;;22.80;99.90;;;;;;6251556;28;20050;-84
2023/08/31 08:02:25;;;;;;;6.28;1.98;;;23.00;99.90;;;;;;6249808;28;20049;-82
2023/08/31 08:05:28;;;;;;;2.85;1.17;;;22.80;99.30;;;;;;6244190;28;20525;-85
2023/08/31 08:08:30;;;;;;;2.70;1.50;;;22.80;98.20;;;;;;6255665;28;20051;-81
2023/08/31 08:11:32;;;;;;;4.90;1.80;;;23.00;97.20;;;;;;6249188;28;20053;-81
2023/08/31 08:14:35;;;;;;;4.63;1.52;;;23.50;96.50;;;;;;6247509;28;20531;-82
2023/08/31 08:17:37;;;;;;;5.30;1.30;;;23.80;95.30;;;;;;6237877;28;20046;-81
2023/08/31 08:20:38;;;;;;;3.38;1.90;;;24.00;94.00;;;;;;6246569;28;20068;-82
2023/08/31 08:23:40;;;;;;;4.63;1.75;;;24.00;92.70;;;;;;6250475;28;20401;-83
2023/08/31 08:26:42;;;;;;;4.05;1.88;;;24.30;92.40;;;;;;6246265;28;20045;-81
2023/08/31 08:29:45;;;;;;;5.53;2.20;;;24.60;91.10;;;;;;6246596;28;20037;-82
2023/08/31 08:32:47;;;;;;;4.10;1.35;;;24.50;87.40;;;;;;6249127;28;20045;-82
2023/08/31 08:35:48;;;;;;;1.48;1.20;;;24.30;87.80;;;;;;6249294;28;20049;-83
2023/08/31 08:38:50;;;;;;;4.20;1.58;;;24.60;87.70;;;;;;6247348;28;20523;-82
2023/08/31 08:41:55;;;;;;;4.80;2.30;;;24.90;85.40;;;;;;6250128;28;20076;-81
2023/08/31 08:44:59;;;;;;;3.78;1.80;;;25.00;83.50;;;;;;6254391;28;20381;-82
2023/08/31 08:48:01;;;;;;;2.97;1.42;;;24.80;81.10;;;;;;6247616;28;20065;-80
2023/08/31 08:51:04;;;;;;;2.58;1.80;;;24.70;82.00;;;;;;6250974;28;20417;-81
2023/08/31 08:54:06;;;;;;;3.42;1.73;;;24.90;79.70;;;;;;6252133;28;20060;-81
2023/08/31 08:57:08;;;;;;;4.07;1.58;;;24.60;79.10;;;;;;6251303;28;20037;-81
2023/08/31 09:00:12;;;;;;;4.68;1.75;;;24.30;77.80;;;;;;6252009;28;20140;-81
2023/08/31 09:03:14;;;;;;;5.68;1.83;;;24.30;79.40;;;;;;6249393;28;20053;-84
2023/08/31 09:06:16;;;;;;;2.88;1.40;;;24.40;79.00;;;;;;6243474;28;20428;-83
2023/08/31 09:09:18;;;;;;;4.32;2.00;;;24.50;78.20;;;;;;6244807;28;20390;-83
2023/08/31 09:12:23;;;;;;;5.55;1.90;;;24.20;77.80;;;;;;6246997;28;20135;-83
2023/08/31 09:15:27;;;;;;;4.60;1.92;;;24.10;78.10;;;;;;6249967;28;20056;-82
2023/08/31 09:18:31;;;;;;;4.22;1.58;;;24.10;78.00;;;;;;6250776;28;20052;-83
2023/08/31 09:21:36;;;;;;;2.90;1.83;;;23.70;77.80;;;;;;6250470;28;20053;-82
2023/08/31 09:24:42;;;;;;;7.05;2.30;;;23.60;79.00;;;;;;6250390;28;20049;-82
2023/08/31 09:27:45;;;;;;;5.78;2.05;;;23.30;78.90;;;;;;6250661;28;20060;-82
2023/08/31 09:30:50;;;;;;;3.63;1.67;;;23.60;80.10;;;;;;6250977;28;20049;-82
2023/08/31 09:33:52;;;;;;;4.90;2.33;;;23.70;76.60;;;;;;6250518;28;20416;-83
2023/08/31 09:36:54;;;;;;;3.72;1.63;;;23.40;77.00;;;;;;6249391;28;20052;-82
2023/08/31 09:39:55;;;;;;;4.10;1.58;;;23.50;77.70;;;;;;6251431;28;20179;-82
2023/08/31 09:42:57;;;;;;;3.83;1.60;;;24.00;77.30;;;;;;6250455;28;20049;-81
2023/08/31 09:46:00;;;;;;;4.60;2.10;;;24.10;76.70;;;;;;6252408;28;20077;-81
2023/08/31 09:49:02;;;;;;;7.45;1.65;;;24.20;77.40;;;;;;6252963;28;20038;-81
2023/08/31 09:52:06;;;;;;;3.60;1.30;;;24.60;76.20;;;;;;6253653;28;20056;-82
2023/08/31 09:55:09;;;;;;;4.80;1.83;;;24.90;74.90;;;;;;6250876;28;20053;-83
2023/08/31 09:58:10;;;;;;;5.63;2.30;;;25.00;73.60;;;;;;6254321;28;20419;-81
2023/08/31 10:01:14;;;;;;;2.88;1.40;;;25.10;72.50;;;;;;6257689;28;20053;-81
2023/08/31 10:04:17;;;;;;;3.10;1.65;;;25.10;72.10;;;;;;6259174;28;20053;-81
2023/08/31 10:07:20;;;;;;;5.85;2.70;;;25.40;72.00;;;;;;6258940;28;20045;-81
2023/08/31 10:10:23;;;;;;;6.30;1.75;;;25.10;70.30;;;;;;6258157;28;20445;-81
2023/08/31 10:13:25;;;;;;;3.30;1.65;;;24.60;70.30;;;;;;6256867;28;20365;-81
2023/08/31 10:16:28;;;;;;;5.45;2.35;;;24.70;71.30;;;;;;6252555;28;20393;-80
2023/08/31 10:19:30;;;;;;;4.88;2.35;;;24.60;70.90;;;;;;6251964;28;20048;-82
2023/08/31 10:22:33;;;;;;;3.58;1.63;;;24.10;70.90;;;;;;6252700;28;20547;-81
2023/08/31 10:26:00;;;;;;;5.05;2.20;;;23.50;71.80;;;;;;6257140;28;20041;-81
2023/08/31 10:29:04;;;;;;;5.25;1.77;;;23.20;73.20;;;;;;6250923;28;20041;-81
2023/08/31 10:32:07;;;;;;;5.63;1.50;;;23.20;73.30;;;;;;6252138;28;20056;-81
2023/08/31 10:35:10;;;;;;;2.22;1.65;;;23.00;71.90;;;;;;6249873;28;20060;-82
2023/08/31 10:38:15;;;;;;;3.67;1.98;;;22.70;72.20;;;;;;6249030;28;20420;-82
2023/08/31 10:41:21;;;;;;;2.67;2.05;;;22.60;72.50;;;;;;6248419;28;20123;-82
2023/08/31 10:44:24;;;;;;;5.60;2.35;;;22.40;73.10;;;;;;6249303;28;20045;-82
2023/08/31 10:47:38;;;;;;;6.80;2.00;;;22.40;73.70;;;;;;6250033;28;20057;-82
2023/08/31 10:50:42;;;;;;;4.97;2.05;;;22.70;73.30;;;;;;6249413;28;20130;-81
2023/08/31 10:53:46;;;;;;;2.45;1.80;;;23.30;73.00;;;;;;6248850;28;20100;-82
2023/08/31 10:57:05;;;;;;;2.35;1.80;;;23.70;72.10;;;;;;6248751;28;20594;-80
2023/08/31 11:00:08;;;;;;;3.08;1.42;;;24.30;71.90;;;;;;6230206;28;20056;-82
2023/08/31 11:03:13;;;;;;;3.53;1.60;;;25.00;70.80;;;;;;6225574;28;20526;-82
2023/08/31 11:06:15;;;;;;;3.22;2.10;;;25.20;69.90;;;;;;6226620;28;20042;-81
2023/08/31 11:09:21;;;;;;;10.38;1.60;;;25.00;68.30;;;;;;6226941;28;20057;-81
2023/08/31 11:12:23;;;;;;;2.78;1.80;;;25.00;68.80;;;;;;6224358;28;20052;-84
2023/08/31 11:15:26;;;;;;;3.47;1.80;;;25.00;68.00;;;;;;6225639;28;20050;-83
2023/08/31 11:18:29;;;;;;;3.42;2.22;;;24.90;67.90;;;;;;6224439;28;20046;-82
2023/08/31 11:21:31;;;;;;;4.05;1.77;;;24.80;68.40;;;;;;6224156;28;20057;-82
2023/08/31 11:24:34;;;;;;;3.33;1.67;;;24.60;68.80;;;;;;6245488;28;20049;-81
2023/08/31 11:27:37;;;;;;;3.13;1.95;;;24.50;69.10;;;;;;6248146;28;20515;-80
2023/08/31 11:30:38;;;;;;;3.55;1.60;;;24.60;69.10;;;;;;6243129;28;20045;-82
2023/08/31 11:33:42;;;;;;;3.35;1.58;;;25.00;69.60;;;;;;6249815;28;20503;-82
2023/08/31 11:36:45;;;;;;;2.30;1.42;;;25.30;66.90;;;;;;6249971;28;20057;-82
2023/08/31 11:39:50;;;;;;;4.38;1.40;;;25.30;65.90;;;;;;6253246;28;20328;-80
2023/08/31 11:42:52;;;;;;;4.13;2.75;;;25.10;66.00;;;;;;6253216;28;20060;-80
2023/08/31 11:45:54;;;;;;;2.08;1.40;;;24.80;65.80;;;;;;6252213;28;20073;-81
2023/08/31 11:48:59;;;;;;;4.88;2.15;;;24.70;65.80;;;;;;6252000;28;20049;-80
2023/08/31 11:52:02;;;;;;;3.80;1.58;;;25.00;66.10;;;;;;6254738;28;20111;-80
2023/08/31 11:55:10;;;;;;;7.57;2.30;;;24.80;66.10;;;;;;6254954;28;20698;-80
2023/08/31 11:58:12;;;;;;;2.90;1.35;;;25.00;66.60;;;;;;6255171;28;20056;-81
2023/08/31 12:01:20;;;;;;;3.30;1.60;;;25.00;66.00;;;;;;6255525;28;20049;-80
2023/08/31 12:04:23;;;;;;;7.68;1.98;;;24.70;66.10;;;;;;6251923;28;20041;-81
2023/08/31 12:07:25;;;;;;;4.65;2.40;;;24.50;66.50;;;;;;6248514;28;20416;-80
2023/08/31 12:10:27;;;;;;;2.60;1.65;;;24.30;66.20;;;;;;6249785;28;20464;-81
2023/08/31 12:13:29;;;;;;;6.28;1.70;;;24.00;66.60;;;;;;6254718;28;20445;-81
2023/08/31 12:16:38;;;;;;;5.15;1.60;;;24.40;67.30;;;;;;6251100;28;20112;-81
2023/08/31 12:19:41;;;;;;;3.95;1.70;;;24.70;65.90;;;;;;6255308;28;20072;-82
2023/08/31 12:22:43;;;;;;;5.50;1.98;;;25.00;65.50;;;;;;6261609;28;20049;-79
2023/08/31 12:25:48;;;;;;;3.75;2.03;;;25.20;64.30;;;;;;6252459;28;20041;-81
2023/08/31 12:28:50;;;;;;;5.95;1.88;;;25.40;64.10;;;;;;6252799;28;20048;-81
2023/08/31 12:31:52;;;;;;;6.75;2.78;;;25.50;63.60;;;;;;6253342;28;20049;-81
2023/08/31 12:34:55;;;;;;;3.45;1.48;;;25.40;63.90;;;;;;6254749;28;20045;-80
2023/08/31 12:37:57;;;;;;;5.47;2.00;;;25.20;64.20;;;;;;6251463;28;20523;-81
2023/08/31 12:40:58;;;;;;;4.35;1.67;;;25.50;64.70;;;;;;6252930;28;20461;-81
2023/08/31 12:44:00;;;;;;;6.32;2.17;;;25.20;63.70;;;;;;6253180;28;20061;-81
2023/08/31 12:47:04;;;;;;;4.40;2.30;;;24.70;64.30;;;;;;6253009;28;20401;-81
2023/08/31 12:50:08;;;;;;;5.72;2.13;;;24.10;65.10;;;;;;6252327;28;20041;-81
2023/08/31 12:53:10;;;;;;;4.03;1.92;;;23.60;66.20;;;;;;6248078;28;20056;-81
2023/08/31 12:56:11;;;;;;;4.75;1.85;;;23.50;66.80;;;;;;6252983;28;20531;-81
2023/08/31 12:59:13;;;;;;;5.68;1.73;;;23.20;67.10;;;;;;6252170;28;20417;-81
2023/08/31 13:02:15;;;;;;;3.63;2.05;;;22.90;67.60;;;;;;6252141;28;20126;-81
2023/08/31 13:05:18;;;;;;;6.28;1.70;;;22.70;68.20;;;;;;6252940;28;20052;-81
2023/08/31 13:08:20;;;;;;;4.40;1.90;;;22.70;69.00;;;;;;6251646;28;20045;-80
2023/08/31 13:11:23;;;;;;;9.15;2.13;;;22.70;68.60;;;;;;6254276;28;20053;-80
2023/08/31 13:14:25;;;;;;;6.70;2.80;;;22.70;68.60;;;;;;6254264;28;20049;-80
2023/08/31 13:17:27;;;;;;;7.22;1.88;;;22.50;68.60;;;;;;6254302;28;20050;-80
2023/08/31 13:20:30;;;;;;;6.00;1.95;;;22.40;69.10;;;;;;6254396;28;20466;-80
2023/08/31 13:23:32;;;;;;;4.13;1.90;;;22.20;69.40;;;;;;6253241;28;20423;-81
2023/08/31 13:26:33;;;;;;;5.07;1.73;;;22.00;69.90;;;;;;6253471;28;20548;-79
2023/08/31 13:29:35;;;;;;;3.00;1.80;;;21.90;70.50;;;;;;6252951;28;20419;-79
2023/08/31 13:32:37;;;;;;;6.82;2.08;;;21.70;71.20;;;;;;6252576;28;20128;-80
2023/08/31 13:35:40;;;;;;;6.15;1.95;;;21.70;71.70;;;;;;6253878;28;20050;-79
2023/08/31 13:38:42;;;;;;;4.93;2.50;;;21.60;71.90;;;;;;6251900;28;20046;-80
2023/08/31 13:41:45;;;;;;;5.18;1.45;;;21.50;72.40;;;;;;6252834;28;20131;-80
2023/08/31 13:44:47;;;;;;;3.35;1.85;;;21.50;72.90;;;;;;6253134;28;20041;-79
2023/08/31 13:47:49;;;;;;;5.43;2.05;;;21.70;73.00;;;;;;6253434;28;20060;-79
2023/08/31 13:50:52;;;;;;;5.18;3.10;;;21.70;73.10;;;;;;6251591;28;20042;-80
2023/08/31 13:53:53;;;;;;;8.55;3.30;;;21.80;73.20;;;;;;6250402;28;20466;-81
2023/08/31 13:56:55;;;;;;;4.40;1.90;;;21.90;73.20;;;;;;6250178;28;20121;-81
2023/08/31 13:59:57;;;;;;;3.70;2.58;;;21.90;73.20;;;;;;6250218;28;20065;-80
2023/08/31 14:03:02;;;;;;;4.50;2.13;;;22.00;73.10;;;;;;6252953;28;20052;-81
2023/08/31 14:06:06;;;;;;;3.85;2.67;;;21.90;73.20;;;;;;6254310;28;20052;-79
2023/08/31 14:09:08;;;;;;;4.85;1.98;;;21.90;73.40;;;;;;6249384;28;20131;-80
2023/08/31 14:12:10;;;;;;;3.60;1.83;;;22.00;73.20;;;;;;6250316;28;20046;-80
2023/08/31 14:15:11;;;;;;;5.65;2.13;;;22.00;73.40;;;;;;6250666;28;20056;-80
2023/08/31 14:18:13;;;;;;;6.47;2.65;;;22.10;73.30;;;;;;6249201;28;20069;-79
2023/08/31 14:21:20;;;;;;;6.43;2.85;;;22.30;73.40;;;;;;6250294;28;20042;-79
2023/08/31 14:24:22;;;;;;;4.85;2.28;;;22.60;73.30;;;;;;6249265;28;20045;-79
2023/08/31 14:27:24;;;;;;;4.28;2.15;;;22.90;72.80;;;;;;6249080;28;20061;-79
2023/08/31 14:30:26;;;;;;;4.80;2.28;;;23.20;72.10;;;;;;6249611;28;20092;-80
2023/08/31 14:33:28;;;;;;;6.63;2.00;;;23.60;71.80;;;;;;6250074;28;20041;-80
2023/08/31 14:36:31;;;;;;;3.45;1.95;;;24.00;71.00;;;;;;6250326;28;20053;-80
2023/08/31 14:39:33;;;;;;;5.18;1.55;;;24.00;70.50;;;;;;6250654;28;20049;-80
2023/08/31 14:42:34;;;;;;;6.32;1.83;;;24.00;70.20;;;;;;6250332;28;20056;-81
2023/08/31 14:45:38;;;;;;;4.85;1.85;;;23.90;70.20;;;;;;6247518;28;20045;-80
2023/08/31 14:48:40;;;;;;;4.50;1.75;;;23.80;70.40;;;;;;6248879;28;20037;-80
2023/08/31 14:51:43;;;;;;;5.03;1.85;;;23.50;71.00;;;;;;6248063;28;20046;-81
2023/08/31 14:54:45;;;;;;;6.28;2.58;;;23.30;71.30;;;;;;6249722;28;20168;-80
2023/08/31 14:57:47;;;;;;;6.95;3.65;;;23.00;71.40;;;;;;6248746;28;20046;-81
2023/08/31 15:00:49;;;;;;;8.93;2.45;;;22.70;72.00;;;;;;6250085;28;20038;-79
2023/08/31 15:03:50;;;;;;;4.47;2.05;;;22.40;73.00;;;;;;6250122;28;20076;-80
2023/08/31 15:06:54;;;;;;;13.13;3.65;;;22.10;72.90;;;;;;6250304;28;20051;-81
2023/08/31 15:09:56;;;;;;;3.70;2.00;;;21.90;73.70;;;;;;6249874;28;20041;-80
2023/08/31 15:12:59;;;;;;;6.55;2.65;;;21.90;74.10;;;;;;6250166;28;20049;-80
2023/08/31 15:16:00;;;;;;;8.35;2.42;;;21.80;74.70;;;;;;6250392;28;20075;-80
2023/08/31 15:19:02;;;;;;;5.03;2.33;;;21.70;75.60;;;;;;6249861;28;20049;-80
2023/08/31 15:22:05;;;;;;;4.10;2.58;;;21.70;76.10;;;;;;6249488;28;20041;-80
2023/08/31 15:25:07;;;;;;;6.68;2.83;;;21.40;77.00;;;;;;6246490;28;20045;-79
2023/08/31 15:28:09;;;;;;;6.68;2.25;;;21.40;77.40;;;;;;6249197;28;20215;-80
2023/08/31 15:31:13;;;;;;;4.03;2.20;;;21.60;77.70;;;;;;6249592;28;20056;-80
2023/08/31 15:34:15;;;;;;;7.72;2.00;;;21.70;77.80;;;;;;6247545;28;20049;-80
2023/08/31 15:37:18;;;;;;;7.63;2.20;;;21.90;78.10;;;;;;6248905;28;20050;-80
2023/08/31 15:40:20;;;;;;;7.95;2.03;;;22.10;77.90;;;;;;6249077;28;20400;-79
2023/08/31 15:43:21;;;;;;;7.68;2.22;;;22.20;77.40;;;;;;6247987;28;20041;-80
2023/08/31 15:46:23;;;;;;;4.47;2.08;;;22.10;76.90;;;;;;6248960;28;20042;-79
2023/08/31 15:49:25;;;;;;;4.60;2.13;;;22.10;77.10;;;;;;6246186;28;20046;-82
2023/08/31 15:52:28;;;;;;;3.88;2.05;;;22.00;77.00;;;;;;6248766;28;20041;-80